Huvudsida
METAR-TAF:

METAR-TAF

Flygplatser :

Tunis, Tunisien

latitud: 36-50N, longitud: 010-14E, höjd: 3 m

Aktuellt väderrapport

Denna rapport gjordes för 28 minuter sedan, klockan 15:00 UTC
Vind 7 kt från nordost, varierande mellan nord och ost
Temperatur 31°C
Fuktighet 27%
Tryck 1013 hPa
Sikt 10 km eller mer
Inga moln under 1 500 m eller inga cumulonimbus

METAR: DTTA 191500Z 04007KT 010V080 CAVOK 31/10 Q1013

Tid: 16:28 (15:28 UTC)

Väderprognos

Denna rapport gjordes för 4 timmar och 28 minuter sedan, klockan 11:00 UTC
Prognos gäller från 19 kl. 12 UTC till 20 kl. 12 UTC
Vind 8 kt från nord
Sikt 10 km eller mer
Inga moln under 1 500 m eller inga cumulonimbus
Blir
från 19 kl. 20 UTC till 19 kl. 22 UTC
Vind 2 kt varierande vindriktning

TAF: DTTA 191100Z 1912/2012 35008KT CAVOK BECMG 1920/1922 VRB02KT

Aktuella väderrapporter och prognoser från 4000 flygplatser (METAR- och TAF-rapporter).

De tillgängliga stationerna syns som gula och röda prickar på kartan.

För musen över prickarna för att se namnen på stationerna.

Klicka sedan för att få väderrapporter och prognoser.

För att ändra kartan: Klicka på de gröna knapparna med ett svart kors på för att zooma in; den gröna knappen med ett streck på för att zooma ut; eller på de gröna pilarna för angränsande kartor.


METAR-TAF: